aviador You're here:

KWVL Decoded Metar

WATERVILLE in ME, USA
Report Time2017-11-21 05:56:00
UTC Time2017-11-21 06:15:53
Flight Rules vfr VFR
WindCalm
Visibility9999 m
Phenomena:N/A
Clouds:N/A
Expected CloudBase > 800 ft AGL from Temp-Dew spread
CeilingNone
Temp-9°C (ISA -23)
Dew Point-11°C (86% RH)
AAT-12.1°C
QNH1016 hPa
Density Alt-2,644 ft
Elevation331 ft
Report Wrong Elevation
Raw Report
METAR KWVL 210556Z AUTO 00000KT 10SM CLR M09/M11 A3000 RMK AO2 SLP194
T10891111 11033 21089 53022 FZRANO=

Extra information for KWVL:More info

Metar Taf Metar & Taf Last 4 Metars F.Rules Stats Wind Profile Meteogram Temp Stats Airport Information Weather charts Add Link Nearby VenuesMetar ALERT Operation Metar Decoded Social comments

AIRNAV info for KWVL